College Dale, Tennessee
Current Conditions -  °F | °C
As of 8:53 AM on Thursday 18 Dec 2014 (Local Time) from KCHA Reporting Station
Broken Clouds Broken Clouds  
Wind Chill: 33°   Ceiling: 8000
Heat Index: 38°   Visibility: 10mi
Dew Point: 32°   Wind: 7mph
Humidity: 79%   Direction: 360°N
Pressure: 30.22"   Gusts: NA
Location:  35.1121°N, 85.0602°W
Report Text: KCHA 181353Z 36006KT 10SM BKN080 BKN095 BKN120 03/00 A3022 RMK AO2 SLP238 RAE34 P0001 T00330000
Loading
Personal Weather Stations






























Interactive Weather Map New forecast layout! Learn more

10-Day Weather Forecast

Advertisements
Track Severe Weather on mobile